メインページ
METAR-TAF:

METAR-TAF

空港 :

エカテリンブルク, ロシア

コルツォヴォ国際空港

緯度: 56-50N, 経度: 060-38E, 海抜: 237m

現時点の気象観測

当レポートは16分前の01:00(UTC)に作成
の風 12kt
気温 5°C
湿度 52%
気圧 1003 hPa
視程10km以上
高度5000ftの雲は散在している, 積乱雲.

METAR: USSS 230100Z 01006MPS 9999 SCT050CB 05/M04 Q1003 R08L/010060 NOSIG RMK QFE732/0977

時間: 06:16 (01:16 UTC)

予報

当レポートは2時間15分前の23:01(UTC)に作成
予報は23日の 00時(UTC)から 23日の 24時(UTC)まで有効
北/北東の風 14kt
視程10km以上
高度700ftの千切れ雲あり
高度2000ftの雲は散在している, 積乱雲.
23日の 00時(UTC)から 23日の 12時(UTC)まで一時的に
北/北東の風 25kt
視程: 2100m
高度1000ftの千切れ雲あり, 積乱雲.
弱いにわか雨

TAF: USSS 222301Z 2300/2324 02007MPS 9999 BKN007 SCT020CB TEMPO 2300/2312 03013MPS 2100 -SHRA BKN010CB

4,000以上の空港の気象観測と天気予報(METAR報とTAF報)

利用可能な観測所は地図上に黄色い丸と赤い丸で示す。

丸の上にカーソルを重ねると観測所名を参照できる。

次にクリックすると気象観測と天気予報を参照できる。

マップの切り替え:黒色「×」印の緑ボタンをクリックして拡大、「-」印の緑ボタンをクリックして縮小、緑色の三角印をクリックして隣りの地図に切り替え


METAR-TAF: